Kobuk Valley National Park, AK

11:04 AM AKDT op 22 mei 2015 (GMT -0800)
RAWS | | Change Station
CLOSE
Current Station
Persoonlijk weerstation
Location: Kiana, AK
Geometrische hoogte: 1201 ft
Nabije weerstations
Actief advies: Areal Flood Advisory Actieve aankondiging: Record Report

Hoogte 1201 ft 67.46 °N, 159.84 °W | Updated 26 minutes ago

Partly Cloudy
Gedeeltelijk bewolkt
36 °F
Voelt als 32 °F
N
5
Wind Variabel Wind van ZW
Gusts 7.0 mijl/u

Vandaag
Hoog -- | Laag -- °F
--% Kans op neerslag
Gisteren
Hoog -- | Laag -- °F
Precip. -- inches
3:57 AM 1:23 AM
Wassende halvemaan, 23% visible
Druk 30.34 inches
Zicht 10.0 mijlen
Wolken Gering 1600 ft
Gevoelstemperatuur 32 °F
Dauwpunt 36 °F
Vochtigheid 99%
Neerslag inches
Dikte sneeuw Niet beschikbaar.
UV 3 van de 12
Pollen Niet beschikbaar.
Luchtkwaliteit Niet beschikbaar.
Flu Activity Sporadic
METAR PAIK 221901Z AUTO 09009KT 10SM FEW016 07/03 A3022 RMK AO2 SLP274 T00720033 PNO $

More Conditions Fewer Conditions

Druk 30.34 inches
Zicht 10.0 mijlen
Wolken Gering 1600 ft
Gevoelstemperatuur 32 °F
Dauwpunt 36 °F
Vochtigheid 99%
Neerslag inches
Dikte sneeuw Niet beschikbaar.
UV 3 van de 12
Pollen Niet beschikbaar.
Luchtkwaliteit Niet beschikbaar.
Flu Activity Sporadic
METAR PAIK 221901Z AUTO 09009KT 10SM FEW016 07/03 A3022 RMK AO2 SLP274 T00720033 PNO $

More Conditions Fewer Conditions

10-Day Weather Forecast

Almanac

Astronomie

May. 22, 2015 Opkomst Ondergang
Werkelijke tijd
Burgerlijke schemering
Nautische schemering
Astronomische schemering
Maan
Golflengte van het zichtbare licht
Daglengte
Tomorrow will be .
, % of the Moon is Illuminated

Extremen vandaag

State Highs State Lows

Community

WunderPhotos

Upload Photos

1,823,278 foto’s ge-upload!

WunderBlogs® & News

Nearby

Luchtkwaliteit

  Luchtkwaliteit LK-index Verontreinigende stof
Not available.

Dikte sneeuw

Station Depth Geometrische hoogte

Aardbevingen

Stad Distance Mag. Time & Date
Minimum magnitude displayed is 2.5.

Watertemperatuur langs de kust

Plaats Temperatuur

Stations

Nabije weerstations

Locatie station Temp. Gevoelstemperatuur Dauwpunt Vochtigheid Wind Precip. Hoogte Geactualiseerd Type
                   
Areal Flood Advisory
Statement as of 1:01 PM AKDT op 21 mei 2015

... The Flood Advisory for melting snow remains in effect until 530 PM
akdt Friday for Noatak river near Noatak...

A pilot report late Thursday morning indicated minor flooding is
occurring in low lying areas along the Noatak river downstream of
Noatak. Bankfull conditions as well as minor flooding is expected to
continue near but outside of the Village of Noatak.

Precautionary/preparedness actions...

A Flood Advisory mean river or stream flows are elevated or ponding
of water in urban or other areas is occurring or is imminent.

Lat... Lon 6773 16259 6745 16260 6745 16334 6774 16334


Tardif-Huber